createdAt,value
2023-05-19T00:00:51.525Z,1011.8
2023-05-19T00:02:07.683Z,1011.8
2023-05-19T00:03:23.809Z,1011.8
2023-05-19T00:04:39.955Z,1011.8
2023-05-19T00:05:56.074Z,1011.8
2023-05-19T00:07:12.209Z,1011.8
2023-05-19T00:08:28.357Z,1011.8
2023-05-19T00:09:44.498Z,1011.8
2023-05-19T00:11:00.625Z,1011.8
2023-05-19T00:12:16.751Z,1011.8
2023-05-19T00:13:32.899Z,1011.8
2023-05-19T00:14:49.036Z,1011.8
2023-05-19T00:16:05.182Z,1011.8
2023-05-19T00:17:21.308Z,1011.8
2023-05-19T00:18:37.489Z,1011.8
2023-05-19T00:19:52.699Z,1011.8
2023-05-19T00:21:08.835Z,1011.8
2023-05-19T00:22:24.967Z,1011.8
2023-05-19T00:23:41.100Z,1011.8
2023-05-19T00:24:57.235Z,1011.8
2023-05-19T00:26:13.381Z,1011.8
2023-05-19T00:27:29.523Z,1011.7
2023-05-19T00:28:45.656Z,1011.7
2023-05-19T00:30:01.781Z,1011.7
2023-05-19T00:31:17.923Z,1011.8
2023-05-19T00:32:34.065Z,1011.7
2023-05-19T00:33:50.189Z,1011.8
2023-05-19T00:35:06.330Z,1011.7
2023-05-19T00:36:22.463Z,1011.7
2023-05-19T00:37:38.594Z,1011.7
2023-05-19T00:38:54.739Z,1011.7
2023-05-19T00:40:10.888Z,1011.7
2023-05-19T00:41:27.018Z,1011.7
2023-05-19T00:42:43.142Z,1011.7
2023-05-19T00:43:59.269Z,1011.7
2023-05-19T00:45:15.425Z,1011.7
2023-05-19T00:46:31.567Z,1011.7
2023-05-19T00:47:47.688Z,1011.7
2023-05-19T00:49:03.823Z,1011.7
2023-05-19T00:50:19.957Z,1011.7
2023-05-19T00:51:36.172Z,1011.7
2023-05-19T00:52:51.382Z,1011.7
2023-05-19T00:54:06.533Z,1011.7
2023-05-19T00:55:22.677Z,1011.7
2023-05-19T00:56:38.810Z,1011.7
2023-05-19T00:57:54.934Z,1011.7
2023-05-19T00:59:11.064Z,1011.7
2023-05-19T01:00:27.205Z,1011.8
2023-05-19T01:01:43.352Z,1011.8
2023-05-19T01:02:59.488Z,1011.7
2023-05-19T01:04:15.629Z,1011.8
2023-05-19T01:05:31.749Z,1011.7
2023-05-19T01:06:47.881Z,1011.7
2023-05-19T01:08:04.025Z,1011.7
2023-05-19T01:09:20.164Z,1011.7
2023-05-19T01:10:36.304Z,1011.7
2023-05-19T01:11:52.434Z,1011.7
2023-05-19T01:13:08.566Z,1011.7
2023-05-19T01:14:24.714Z,1011.7
2023-05-19T01:15:40.856Z,1011.7
2023-05-19T01:16:56.977Z,1011.7
2023-05-19T01:18:13.117Z,1011.7
2023-05-19T01:19:29.253Z,1011.7
2023-05-19T01:20:45.396Z,1011.7
2023-05-19T01:22:01.523Z,1011.7
2023-05-19T01:23:17.652Z,1011.7
2023-05-19T01:24:33.800Z,1011.7
2023-05-19T01:25:49.926Z,1011.7
2023-05-19T01:27:06.068Z,1011.7
2023-05-19T01:28:22.211Z,1011.7
2023-05-19T01:29:38.347Z,1011.7
2023-05-19T01:30:54.467Z,1011.7
2023-05-19T01:32:10.609Z,1011.7
2023-05-19T01:33:26.745Z,1011.7
2023-05-19T01:34:42.887Z,1011.7
2023-05-19T01:35:59.021Z,1011.6
2023-05-19T01:37:15.148Z,1011.7
2023-05-19T01:38:31.282Z,1011.7
2023-05-19T01:39:47.424Z,1011.6
2023-05-19T01:41:03.714Z,1011.6
2023-05-19T01:42:19.838Z,1011.7
2023-05-19T01:43:35.974Z,1011.7
2023-05-19T01:44:52.112Z,1011.7
2023-05-19T01:46:08.263Z,1011.6
2023-05-19T01:47:24.393Z,1011.6
2023-05-19T01:48:40.529Z,1011.6
2023-05-19T01:49:56.656Z,1011.7
2023-05-19T01:51:12.802Z,1011.6
2023-05-19T01:52:28.950Z,1011.6
2023-05-19T01:53:45.079Z,1011.6
2023-05-19T01:55:01.214Z,1011.6
2023-05-19T01:56:17.345Z,1011.6
2023-05-19T01:57:33.472Z,1011.6
2023-05-19T01:58:49.617Z,1011.6
2023-05-19T02:00:05.751Z,1011.6
2023-05-19T02:01:21.895Z,1011.7
2023-05-19T02:02:38.020Z,1011.7
2023-05-19T02:03:54.144Z,1011.7
2023-05-19T02:05:10.306Z,1011.7
2023-05-19T02:06:26.438Z,1011.7
2023-05-19T02:07:42.574Z,1011.7
2023-05-19T02:08:58.701Z,1011.7
2023-05-19T02:10:14.832Z,1011.7
2023-05-19T02:11:30.973Z,1011.7
2023-05-19T02:12:47.171Z,1011.7
2023-05-19T02:14:02.385Z,1011.6
2023-05-19T02:15:17.523Z,1011.7
2023-05-19T02:16:33.666Z,1011.6
2023-05-19T02:17:49.801Z,1011.7
2023-05-19T02:19:05.938Z,1011.7
2023-05-19T02:20:22.057Z,1011.7
2023-05-19T02:21:38.201Z,1011.7
2023-05-19T02:22:54.337Z,1011.7
2023-05-19T02:24:10.477Z,1011.7
2023-05-19T02:25:26.611Z,1011.7
2023-05-19T02:26:42.733Z,1011.7
2023-05-19T02:27:58.899Z,1011.7
2023-05-19T02:29:15.033Z,1011.6
2023-05-19T02:30:31.163Z,1011.6
2023-05-19T02:31:47.286Z,1011.6
2023-05-19T02:33:03.432Z,1011.6
2023-05-19T02:34:19.560Z,1011.6
2023-05-19T02:35:35.702Z,1011.6
2023-05-19T02:36:51.840Z,1011.5
2023-05-19T02:38:07.971Z,1011.5
2023-05-19T02:39:24.095Z,1011.6
2023-05-19T02:40:40.248Z,1011.5
2023-05-19T02:41:56.392Z,1011.5
2023-05-19T02:43:12.517Z,1011.5
2023-05-19T02:44:28.648Z,1011.5
2023-05-19T02:45:44.787Z,1011.5
2023-05-19T02:47:00.935Z,1011.5
2023-05-19T02:48:17.061Z,1011.5
2023-05-19T02:49:33.197Z,1011.5
2023-05-19T02:50:49.326Z,1011.5
2023-05-19T02:52:05.462Z,1011.5
2023-05-19T02:53:21.601Z,1011.5
2023-05-19T02:54:37.738Z,1011.5
2023-05-19T02:55:53.866Z,1011.5
2023-05-19T02:57:10.001Z,1011.5
2023-05-19T02:58:26.148Z,1011.5
2023-05-19T02:59:42.296Z,1011.5
2023-05-19T03:00:58.428Z,1011.5
2023-05-19T03:02:14.617Z,1011.5
2023-05-19T03:03:29.850Z,1011.5
2023-05-19T03:04:45.068Z,1011.5
2023-05-19T03:06:01.193Z,1011.5
2023-05-19T03:07:17.326Z,1011.5
2023-05-19T03:08:33.464Z,1011.4
2023-05-19T03:09:49.603Z,1011.5
2023-05-19T03:11:05.860Z,1011.5
2023-05-19T03:12:21.995Z,1011.5
2023-05-19T03:13:38.136Z,1011.5
2023-05-19T03:14:54.264Z,1011.5
2023-05-19T03:16:10.403Z,1011.5
2023-05-19T03:17:26.548Z,1011.5
2023-05-19T03:18:42.681Z,1011.5
2023-05-19T03:19:58.798Z,1011.5
2023-05-19T03:21:14.933Z,1011.5
2023-05-19T03:22:31.085Z,1011.5
2023-05-19T03:23:47.218Z,1011.5
2023-05-19T03:25:03.343Z,1011.4
2023-05-19T03:26:19.477Z,1011.4
2023-05-19T03:27:35.627Z,1011.4
2023-05-19T03:28:51.762Z,1011.4
2023-05-19T03:30:07.910Z,1011.4
2023-05-19T03:31:24.029Z,1011.4
2023-05-19T03:32:40.162Z,1011.5
2023-05-19T03:33:56.308Z,1011.4
2023-05-19T03:35:12.451Z,1011.5
2023-05-19T03:36:28.571Z,1011.5
2023-05-19T03:37:44.705Z,1011.4
2023-05-19T03:39:00.843Z,1011.5
2023-05-19T03:40:16.984Z,1011.5
2023-05-19T03:41:33.119Z,1011.5
2023-05-19T03:42:49.000Z,1011.5
2023-05-19T03:44:05.383Z,1011.5
2023-05-19T03:45:21.524Z,1011.5
2023-05-19T03:46:37.667Z,1011.5
2023-05-19T03:47:53.806Z,1011.5
2023-05-19T03:49:09.948Z,1011.6
2023-05-19T03:50:26.080Z,1011.5
2023-05-19T03:51:42.206Z,1011.6
2023-05-19T03:52:58.348Z,1011.6
2023-05-19T03:54:14.489Z,1011.6
2023-05-19T03:55:30.610Z,1011.6
2023-05-19T03:56:46.749Z,1011.5
2023-05-19T03:58:02.954Z,1011.6
2023-05-19T03:59:18.160Z,1011.6
2023-05-19T04:00:34.281Z,1011.5
2023-05-19T04:01:50.425Z,1011.5
2023-05-19T04:03:06.559Z,1011.6
2023-05-19T04:04:22.680Z,1011.6
2023-05-19T04:05:38.824Z,1011.6
2023-05-19T04:06:54.956Z,1011.6
2023-05-19T04:08:11.096Z,1011.6
2023-05-19T04:09:27.235Z,1011.7
2023-05-19T04:10:43.360Z,1011.7
2023-05-19T04:11:59.516Z,1011.7
2023-05-19T04:13:15.644Z,1011.7
2023-05-19T04:14:31.772Z,1011.7
2023-05-19T04:15:47.907Z,1011.7
2023-05-19T04:17:04.043Z,1011.7
2023-05-19T04:18:20.191Z,1011.7
2023-05-19T04:19:36.318Z,1011.7
2023-05-19T04:20:52.458Z,1011.7
2023-05-19T04:22:08.591Z,1011.7
2023-05-19T04:23:24.731Z,1011.7
2023-05-19T04:24:40.862Z,1011.7
2023-05-19T04:25:57.000Z,1011.7
2023-05-19T04:27:13.146Z,1011.7
2023-05-19T04:28:29.260Z,1011.7
2023-05-19T04:29:45.406Z,1011.7
2023-05-19T04:31:01.612Z,1011.7
2023-05-19T04:32:16.823Z,1011.7
2023-05-19T04:33:31.971Z,1011.7
2023-05-19T04:34:48.115Z,1011.7
2023-05-19T04:36:04.255Z,1011.7
2023-05-19T04:37:20.378Z,1011.7
2023-05-19T04:38:36.516Z,1011.7
2023-05-19T04:39:52.647Z,1011.7
2023-05-19T04:41:08.792Z,1011.7
2023-05-19T04:42:24.925Z,1011.7
2023-05-19T04:43:41.067Z,1011.7
2023-05-19T04:44:57.190Z,1011.7
2023-05-19T04:46:13.316Z,1011.7
2023-05-19T04:47:29.471Z,1011.6
2023-05-19T04:48:45.599Z,1011.7
2023-05-19T04:50:01.745Z,1011.7
2023-05-19T04:51:17.874Z,1011.7
2023-05-19T04:52:34.003Z,1011.7
2023-05-19T04:53:50.158Z,1011.6
2023-05-19T04:55:06.286Z,1011.6
2023-05-19T04:56:22.410Z,1011.7
2023-05-19T04:57:38.549Z,1011.6
2023-05-19T04:58:54.680Z,1011.7
2023-05-19T05:00:10.826Z,1011.7
2023-05-19T05:01:26.969Z,1011.7
2023-05-19T05:02:43.091Z,1011.7
2023-05-19T05:03:59.241Z,1011.7
2023-05-19T05:05:15.372Z,1011.7
2023-05-19T05:06:31.513Z,1011.7
2023-05-19T05:07:47.653Z,1011.7
2023-05-19T05:09:03.785Z,1011.7
2023-05-19T05:10:19.916Z,1011.7
2023-05-19T05:11:36.051Z,1011.6
2023-05-19T05:12:52.199Z,1011.7
2023-05-19T05:14:08.335Z,1011.6
2023-05-19T05:15:24.456Z,1011.7
2023-05-19T05:16:40.581Z,1011.7
2023-05-19T05:17:56.718Z,1011.7
2023-05-19T05:19:12.876Z,1011.7
2023-05-19T05:20:29.054Z,1011.7
2023-05-19T05:21:44.270Z,1011.7
2023-05-19T05:22:59.415Z,1011.7
2023-05-19T05:24:15.551Z,1011.7
2023-05-19T05:25:31.697Z,1011.7
2023-05-19T05:26:47.833Z,1011.7
2023-05-19T05:28:03.966Z,1011.7
2023-05-19T05:29:20.104Z,1011.6
2023-05-19T05:30:36.242Z,1011.7
2023-05-19T05:31:52.370Z,1011.7
2023-05-19T05:33:08.501Z,1011.7
2023-05-19T05:34:24.633Z,1011.7
2023-05-19T05:35:40.778Z,1011.7
2023-05-19T05:36:56.925Z,1011.7
2023-05-19T05:38:13.050Z,1011.7
2023-05-19T05:39:29.185Z,1011.7
2023-05-19T05:40:45.314Z,1011.7
2023-05-19T05:42:01.469Z,1011.7
2023-05-19T05:43:17.591Z,1011.7
2023-05-19T05:44:33.725Z,1011.7
2023-05-19T05:45:49.856Z,1011.7
2023-05-19T05:47:05.992Z,1011.7
2023-05-19T05:48:22.153Z,1011.7
2023-05-19T05:49:38.275Z,1011.7
2023-05-19T05:50:54.404Z,1011.7
2023-05-19T05:52:10.535Z,1011.7
2023-05-19T05:53:26.680Z,1011.7
2023-05-19T05:54:42.829Z,1011.7
2023-05-19T05:55:58.958Z,1011.7
2023-05-19T05:57:15.085Z,1011.7
2023-05-19T05:58:31.223Z,1011.7
2023-05-19T05:59:47.355Z,1011.7
2023-05-19T06:01:03.512Z,1011.7
2023-05-19T06:02:19.634Z,1011.7
2023-05-19T06:03:35.781Z,1011.7
2023-05-19T06:04:51.900Z,1011.7
2023-05-19T06:06:08.037Z,1011.7
2023-05-19T06:07:24.187Z,1011.7
2023-05-19T06:08:40.314Z,1011.7
2023-05-19T06:09:56.506Z,1011.7
2023-05-19T06:11:11.749Z,1011.7
2023-05-19T06:12:26.963Z,1011.7
2023-05-19T06:13:43.087Z,1011.7
2023-05-19T06:14:59.218Z,1011.7
2023-05-19T06:16:15.359Z,1011.7
2023-05-19T06:17:31.492Z,1011.7
2023-05-19T06:18:47.635Z,1011.7
2023-05-19T06:20:03.777Z,1011.7
2023-05-19T06:21:19.892Z,1011.7
2023-05-19T06:22:36.043Z,1011.7
2023-05-19T06:23:52.189Z,1011.7
2023-05-19T06:25:08.309Z,1011.7
2023-05-19T06:26:24.440Z,1011.7
2023-05-19T06:27:40.575Z,1011.7
2023-05-19T06:28:56.718Z,1011.7
2023-05-19T06:30:12.871Z,1011.8
2023-05-19T06:31:28.987Z,1011.8
2023-05-19T06:32:45.139Z,1011.8
2023-05-19T06:34:01.259Z,1011.8
2023-05-19T06:35:17.403Z,1011.8
2023-05-19T06:36:33.539Z,1011.8
2023-05-19T06:37:49.675Z,1011.8
2023-05-19T06:39:05.815Z,1011.8
2023-05-19T06:40:21.937Z,1011.8
2023-05-19T06:41:38.078Z,1011.8
2023-05-19T06:42:54.225Z,1011.8
2023-05-19T06:44:10.412Z,1011.9
2023-05-19T06:45:25.658Z,1011.9
2023-05-19T06:46:41.852Z,1011.8
2023-05-19T06:47:58.040Z,1011.8
2023-05-19T06:49:13.236Z,1011.8
2023-05-19T06:50:28.389Z,1011.8
2023-05-19T06:51:44.541Z,1011.8
2023-05-19T06:53:00.685Z,1011.8
2023-05-19T06:54:16.818Z,1011.9
2023-05-19T06:55:32.950Z,1011.8
2023-05-19T06:56:49.074Z,1011.8
2023-05-19T06:58:05.221Z,1011.8
2023-05-19T06:59:21.348Z,1011.9
2023-05-19T07:00:37.483Z,1011.9
2023-05-19T07:01:53.632Z,1011.8
2023-05-19T07:03:09.753Z,1011.8
2023-05-19T07:04:25.901Z,1011.8
2023-05-19T07:05:42.042Z,1011.8
2023-05-19T07:06:58.172Z,1011.8
2023-05-19T07:08:14.308Z,1011.9
2023-05-19T07:09:30.446Z,1011.8
2023-05-19T07:10:46.000Z,1011.8
2023-05-19T07:12:02.714Z,1011.8
2023-05-19T07:13:18.849Z,1011.8
2023-05-19T07:14:34.991Z,1011.9
2023-05-19T07:15:51.116Z,1011.9
2023-05-19T07:17:07.273Z,1011.9
2023-05-19T07:18:23.389Z,1011.8
2023-05-19T07:19:39.534Z,1011.9
2023-05-19T07:20:55.670Z,1011.8
2023-05-19T07:22:11.802Z,1011.8
2023-05-19T07:23:27.954Z,1011.8
2023-05-19T07:24:44.073Z,1011.8
2023-05-19T07:26:00.218Z,1011.8
2023-05-19T07:27:16.347Z,1011.7
2023-05-19T07:28:32.479Z,1011.8
2023-05-19T07:29:48.632Z,1011.8
2023-05-19T07:31:04.757Z,1011.7
2023-05-19T07:32:20.893Z,1011.7
2023-05-19T07:33:37.033Z,1011.7
2023-05-19T07:34:53.166Z,1011.7
2023-05-19T07:36:09.306Z,1011.6
2023-05-19T07:37:25.502Z,1011.7
2023-05-19T07:38:40.698Z,1011.6
2023-05-19T07:39:56.848Z,1011.6
2023-05-19T07:41:12.983Z,1011.5
2023-05-19T07:42:29.130Z,1011.6
2023-05-19T07:43:45.247Z,1011.6
2023-05-19T07:45:01.380Z,1011.5
2023-05-19T07:46:17.513Z,1011.6
2023-05-19T07:47:33.667Z,1011.5
2023-05-19T07:48:49.812Z,1011.5
2023-05-19T07:50:05.946Z,1011.5
2023-05-19T07:51:22.078Z,1011.5
2023-05-19T07:52:38.213Z,1011.5
2023-05-19T07:53:54.360Z,1011.5
2023-05-19T07:55:10.494Z,1011.5
2023-05-19T07:56:26.622Z,1011.4
2023-05-19T07:57:42.747Z,1011.4
2023-05-19T07:58:58.895Z,1011.5
2023-05-19T08:00:15.031Z,1011.4
2023-05-19T08:01:31.171Z,1011.4
2023-05-19T08:02:47.301Z,1011.4
2023-05-19T08:04:03.442Z,1011.5
2023-05-19T08:05:19.570Z,1011.5
2023-05-19T08:06:35.727Z,1011.4
2023-05-19T08:07:51.856Z,1011.5
2023-05-19T08:09:07.978Z,1011.5
2023-05-19T08:10:24.000Z,1011.5
2023-05-19T08:11:39.411Z,1011.4
2023-05-19T08:12:54.615Z,1011.5
2023-05-19T08:14:09.767Z,1011.4
2023-05-19T08:15:25.931Z,1011.5
2023-05-19T08:16:42.063Z,1011.5
2023-05-19T08:17:58.189Z,1011.4
2023-05-19T08:19:14.322Z,1011.3
2023-05-19T08:20:30.454Z,1011.4
2023-05-19T08:21:46.606Z,1011.4
2023-05-19T08:23:02.741Z,1011.4
2023-05-19T08:24:18.865Z,1011.4
2023-05-19T08:25:35.011Z,1011.4
2023-05-19T08:26:51.141Z,1011.3
2023-05-19T08:28:07.283Z,1011.3
2023-05-19T08:29:23.429Z,1011.3
2023-05-19T08:30:39.558Z,1011.3
2023-05-19T08:31:55.690Z,1011.3
2023-05-19T08:33:11.822Z,1011.3
2023-05-19T08:34:27.978Z,1011.2
2023-05-19T08:35:44.101Z,1011.2
2023-05-19T08:37:00.237Z,1011.2
2023-05-19T08:38:16.369Z,1011.1
2023-05-19T08:39:32.515Z,1011.1
2023-05-19T08:40:48.662Z,1011.1
2023-05-19T08:42:04.795Z,1011.1
2023-05-19T08:43:20.934Z,1011.1
2023-05-19T08:44:37.054Z,1011
2023-05-19T08:45:53.202Z,1011.1
2023-05-19T08:47:09.343Z,1011
2023-05-19T08:48:25.475Z,1011
2023-05-19T08:49:41.612Z,1011
2023-05-19T08:50:57.741Z,1010.9
2023-05-19T08:52:13.877Z,1011
2023-05-19T08:53:30.023Z,1010.9
2023-05-19T08:54:46.159Z,1010.9
2023-05-19T08:56:02.302Z,1010.9
2023-05-19T08:57:18.424Z,1010.8
2023-05-19T08:58:34.570Z,1010.9
2023-05-19T08:59:50.717Z,1010.9
2023-05-19T09:01:06.904Z,1010.9
2023-05-19T09:02:22.139Z,1010.8
2023-05-19T09:03:37.363Z,1010.7
2023-05-19T09:04:53.481Z,1010.8
2023-05-19T09:06:09.629Z,1010.8
2023-05-19T09:07:25.761Z,1010.7
2023-05-19T09:08:41.900Z,1010.8
2023-05-19T09:09:58.049Z,1010.8
2023-05-19T09:12:30.304Z,1010.7
2023-05-19T09:13:46.441Z,1010.7
2023-05-19T09:15:02.572Z,1010.7
2023-05-19T09:16:18.724Z,1010.8
2023-05-19T09:17:34.872Z,1010.6
2023-05-19T09:18:50.992Z,1010.7
2023-05-19T09:20:07.137Z,1010.9
2023-05-19T09:21:23.262Z,1010.7
2023-05-19T09:22:39.417Z,1010.7
2023-05-19T09:23:55.551Z,1010.7
2023-05-19T09:25:11.685Z,1010.8
2023-05-19T09:26:27.814Z,1010.8
2023-05-19T09:27:43.961Z,1010.7
2023-05-19T09:29:00.113Z,1010.7
2023-05-19T09:30:16.251Z,1010.7
2023-05-19T09:31:32.371Z,1010.7
2023-05-19T09:32:48.509Z,1010.7
2023-05-19T09:34:04.645Z,1010.7
2023-05-19T09:35:20.851Z,1010.6
2023-05-19T09:36:36.108Z,1010.6
2023-05-19T09:37:51.324Z,1010.9
2023-05-19T09:39:07.471Z,1010.8
2023-05-19T09:40:23.597Z,1010.6
2023-05-19T09:41:39.726Z,1010.6
2023-05-19T09:42:55.859Z,1010.7
2023-05-19T09:44:11.998Z,1010.6
2023-05-19T09:45:28.162Z,1010.6
2023-05-19T09:46:44.281Z,1010.6
2023-05-19T09:48:00.429Z,1010.5
2023-05-19T09:49:16.563Z,1010.5
2023-05-19T09:50:32.688Z,1010.7
2023-05-19T09:51:48.838Z,1010.6
2023-05-19T09:53:04.968Z,1010.6
2023-05-19T09:54:21.103Z,1010.5
2023-05-19T09:55:37.247Z,1010.5
2023-05-19T09:56:53.386Z,1010.5
2023-05-19T09:58:09.536Z,1010.5
2023-05-19T09:59:25.670Z,1010.5
2023-05-19T10:00:41.803Z,1010.5
2023-05-19T10:01:57.934Z,1010.4
2023-05-19T10:03:14.065Z,1010.5
2023-05-19T10:04:30.224Z,1010.4
2023-05-19T10:05:46.345Z,1010.4
2023-05-19T10:07:02.478Z,1010.4
2023-05-19T10:08:18.630Z,1010.4
2023-05-19T10:09:34.807Z,1010.4
2023-05-19T10:10:50.048Z,1010.2
2023-05-19T10:12:06.250Z,1010.2
2023-05-19T10:13:21.451Z,1010.3
2023-05-19T10:14:37.603Z,1010.2
2023-05-19T10:15:53.739Z,1010.1
2023-05-19T10:17:09.873Z,1010.2
2023-05-19T10:18:26.008Z,1010.2
2023-05-19T10:19:42.143Z,1010.2
2023-05-19T10:20:58.280Z,1010.2
2023-05-19T10:22:14.421Z,1010.1
2023-05-19T10:23:30.560Z,1010.1
2023-05-19T10:24:46.685Z,1010
2023-05-19T10:26:02.838Z,1010.1
2023-05-19T10:27:18.975Z,1010
2023-05-19T10:28:35.109Z,1010.1
2023-05-19T10:29:51.255Z,1010.1
2023-05-19T10:31:07.388Z,1010.1
2023-05-19T10:32:23.522Z,1010.1
2023-05-19T10:33:39.658Z,1010.1
2023-05-19T10:34:55.803Z,1010.2
2023-05-19T10:36:11.934Z,1010
2023-05-19T10:37:28.067Z,1010.1
2023-05-19T10:38:44.204Z,1010.1
2023-05-19T10:40:00.362Z,1010
2023-05-19T10:41:16.483Z,1009.9
2023-05-19T10:42:32.622Z,1009.9
2023-05-19T10:43:48.762Z,1010
2023-05-19T10:45:04.957Z,1010
2023-05-19T10:46:20.191Z,1009.9
2023-05-19T10:47:35.401Z,1010
2023-05-19T10:48:51.543Z,1010
2023-05-19T10:50:07.691Z,1010
2023-05-19T10:51:23.825Z,1010.1
2023-05-19T10:52:39.960Z,1010
2023-05-19T10:53:56.085Z,1010.1
2023-05-19T10:55:12.229Z,1010.1
2023-05-19T10:56:28.377Z,1010.1
2023-05-19T10:57:44.509Z,1010
2023-05-19T10:59:00.629Z,1010
2023-05-19T11:00:16.764Z,1010.1
2023-05-19T11:01:32.903Z,1010
2023-05-19T11:02:49.052Z,1010
2023-05-19T11:04:05.198Z,1010
2023-05-19T11:05:21.316Z,1010
2023-05-19T11:06:37.450Z,1009.9
2023-05-19T11:07:53.598Z,1009.9
2023-05-19T11:09:09.749Z,1009.9
2023-05-19T11:10:25.872Z,1009.9
2023-05-19T11:11:42.004Z,1009.9
2023-05-19T11:12:58.140Z,1009.9
2023-05-19T11:14:14.280Z,1010
2023-05-19T11:15:30.423Z,1010
2023-05-19T11:16:46.554Z,1009.9
2023-05-19T11:18:02.690Z,1009.9
2023-05-19T11:19:18.883Z,1009.9
2023-05-19T11:20:34.116Z,1009.9
2023-05-19T11:21:49.322Z,1009.9
2023-05-19T11:23:04.493Z,1009.9
2023-05-19T11:24:20.631Z,1009.9
2023-05-19T11:25:36.757Z,1009.9
2023-05-19T11:26:52.891Z,1009.9
2023-05-19T11:28:09.023Z,1009.9
2023-05-19T11:29:25.161Z,1009.9
2023-05-19T11:30:41.318Z,1009.9
2023-05-19T11:31:57.443Z,1009.9
2023-05-19T11:33:13.584Z,1009.9
2023-05-19T11:34:29.709Z,1009.9
2023-05-19T11:35:45.853Z,1009.9
2023-05-19T11:37:02.007Z,1009.9
2023-05-19T11:38:18.130Z,1009.9
2023-05-19T11:39:34.268Z,1009.9
2023-05-19T11:40:50.405Z,1009.9
2023-05-19T11:42:06.528Z,1009.9
2023-05-19T11:43:22.686Z,1009.8
2023-05-19T11:44:38.816Z,1009.8
2023-05-19T11:45:54.944Z,1009.8
2023-05-19T11:47:11.077Z,1009.8
2023-05-19T11:48:27.209Z,1009.7
2023-05-19T11:49:43.359Z,1009.7
2023-05-19T11:50:59.508Z,1009.7
2023-05-19T11:52:15.640Z,1009.7
2023-05-19T11:53:31.772Z,1009.7
2023-05-19T11:54:47.901Z,1009.7
2023-05-19T11:56:04.054Z,1009.8
2023-05-19T11:57:20.180Z,1009.8
2023-05-19T11:58:36.315Z,1009.8
2023-05-19T11:59:52.445Z,1009.8
2023-05-19T12:01:08.593Z,1009.7
2023-05-19T12:02:24.727Z,1009.8
2023-05-19T12:03:40.866Z,1009.8
2023-05-19T12:04:56.992Z,1009.8
2023-05-19T12:06:13.125Z,1009.8
2023-05-19T12:07:29.262Z,1009.8
2023-05-19T12:08:45.416Z,1009.8
2023-05-19T12:10:01.603Z,1009.9
2023-05-19T12:11:16.853Z,1009.9
2023-05-19T12:12:32.057Z,1009.9
2023-05-19T12:13:48.187Z,1009.9
2023-05-19T12:15:04.324Z,1009.9
2023-05-19T12:16:20.448Z,1009.9
2023-05-19T12:17:36.597Z,1009.8
2023-05-19T12:18:52.736Z,1009.8
2023-05-19T12:20:08.865Z,1009.8
2023-05-19T12:21:24.993Z,1009.8
2023-05-19T12:22:41.144Z,1009.7
2023-05-19T12:23:57.273Z,1009.7
2023-05-19T12:25:13.411Z,1009.7
2023-05-19T12:26:29.555Z,1009.7
2023-05-19T12:27:45.677Z,1009.7
2023-05-19T12:29:01.825Z,1009.6
2023-05-19T12:30:17.956Z,1009.6
2023-05-19T12:31:34.091Z,1009.6
2023-05-19T12:32:50.240Z,1009.6
2023-05-19T12:34:06.375Z,1009.7
2023-05-19T12:35:22.493Z,1009.7
2023-05-19T12:36:38.633Z,1009.7
2023-05-19T12:37:54.772Z,1009.7
2023-05-19T12:39:10.919Z,1009.6
2023-05-19T12:40:27.050Z,1009.6
2023-05-19T12:41:43.177Z,1009.6
2023-05-19T12:42:59.309Z,1009.6
2023-05-19T12:44:15.000Z,1009.6
2023-05-19T12:45:30.752Z,1009.5
2023-05-19T12:46:46.947Z,1009.5
2023-05-19T12:48:02.000Z,1009.5
2023-05-19T12:49:18.294Z,1009.5
2023-05-19T12:50:34.435Z,1009.6
2023-05-19T12:51:50.560Z,1009.5
2023-05-19T12:53:06.697Z,1009.6
2023-05-19T12:54:22.846Z,1009.5
2023-05-19T12:55:38.970Z,1009.6
2023-05-19T12:56:55.109Z,1009.5
2023-05-19T12:58:11.232Z,1009.6
2023-05-19T12:59:27.365Z,1009.6
2023-05-19T13:00:43.527Z,1009.5
2023-05-19T13:01:59.654Z,1009.5
2023-05-19T13:03:15.785Z,1009.5
2023-05-19T13:04:31.929Z,1009.5
2023-05-19T13:05:48.048Z,1009.6
2023-05-19T13:07:04.192Z,1009.6
2023-05-19T13:08:20.340Z,1009.6
2023-05-19T13:09:36.461Z,1009.5
2023-05-19T13:10:52.608Z,1009.5
2023-05-19T13:12:08.729Z,1009.5
2023-05-19T13:13:24.875Z,1009.5
2023-05-19T13:14:41.010Z,1009.4
2023-05-19T13:15:57.144Z,1009.4
2023-05-19T13:17:13.275Z,1009.3
2023-05-19T13:18:29.406Z,1009.3
2023-05-19T13:19:45.609Z,1009.3
2023-05-19T13:21:00.864Z,1009.4
2023-05-19T13:22:16.054Z,1009.3
2023-05-19T13:23:32.207Z,1009.3
2023-05-19T13:24:48.346Z,1009.3
2023-05-19T13:26:04.471Z,1009.3
2023-05-19T13:27:20.618Z,1009.3
2023-05-19T13:28:36.737Z,1009.3
2023-05-19T13:29:52.883Z,1009.3
2023-05-19T13:31:09.024Z,1009.4
2023-05-19T13:32:25.156Z,1009.4
2023-05-19T13:33:41.288Z,1009.4
2023-05-19T13:36:13.582Z,1009.4
2023-05-19T13:37:29.701Z,1009.5
2023-05-19T13:38:45.832Z,1009.4
2023-05-19T13:40:01.984Z,1009.4
2023-05-19T13:41:18.117Z,1009.4
2023-05-19T13:42:34.259Z,1009.4
2023-05-19T13:43:50.390Z,1009.4
2023-05-19T13:45:06.532Z,1009.4
2023-05-19T13:46:22.647Z,1009.4
2023-05-19T13:47:38.781Z,1009.5
2023-05-19T13:48:54.931Z,1009.5
2023-05-19T13:50:11.068Z,1009.4
2023-05-19T13:51:27.208Z,1009.4
2023-05-19T13:52:43.336Z,1009.4
2023-05-19T13:53:59.531Z,1009.4
2023-05-19T13:55:14.794Z,1009.4
2023-05-19T13:56:30.004Z,1009.4
2023-05-19T13:57:46.125Z,1009.4
2023-05-19T13:59:02.272Z,1009.3
2023-05-19T14:00:18.416Z,1009.3
2023-05-19T14:01:34.540Z,1009.4
2023-05-19T14:02:50.684Z,1009.2
2023-05-19T14:04:06.805Z,1009.3
2023-05-19T14:05:22.953Z,1009.2
2023-05-19T14:06:39.101Z,1009.2
2023-05-19T14:07:55.235Z,1009.3
2023-05-19T14:09:11.360Z,1009.3
2023-05-19T14:10:27.505Z,1009.3
2023-05-19T14:11:43.633Z,1009.3
2023-05-19T14:12:59.785Z,1009.3
2023-05-19T14:14:15.907Z,1009.3
2023-05-19T14:15:32.040Z,1009.2
2023-05-19T14:16:48.175Z,1009.2
2023-05-19T14:18:04.328Z,1009.2
2023-05-19T14:19:20.463Z,1009.2
2023-05-19T14:20:36.601Z,1009.2
2023-05-19T14:21:52.716Z,1009.2
2023-05-19T14:23:08.863Z,1009.2
2023-05-19T14:24:25.013Z,1009.2
2023-05-19T14:25:41.139Z,1009.2
2023-05-19T14:26:57.283Z,1009.2
2023-05-19T14:28:13.471Z,1009.2
2023-05-19T14:29:28.712Z,1009.3
2023-05-19T14:30:44.891Z,1009.3
2023-05-19T14:32:00.111Z,1009.2
2023-05-19T14:33:16.241Z,1009.3
2023-05-19T14:34:32.378Z,1009.2
2023-05-19T14:35:48.514Z,1009.2
2023-05-19T14:37:04.649Z,1009.2
2023-05-19T14:38:20.782Z,1009.2
2023-05-19T14:39:36.912Z,1009.3
2023-05-19T14:40:53.072Z,1009.2
2023-05-19T14:42:09.200Z,1009.3
2023-05-19T14:43:25.342Z,1009.3
2023-05-19T14:44:41.464Z,1009.3
2023-05-19T14:45:57.603Z,1009.3
2023-05-19T14:47:13.755Z,1009.3
2023-05-19T14:48:29.885Z,1009.3
2023-05-19T14:49:46.010Z,1009.3
2023-05-19T14:51:02.141Z,1009.3
2023-05-19T14:52:18.280Z,1009.3
2023-05-19T14:53:34.420Z,1009.2
2023-05-19T14:54:50.557Z,1009.2
2023-05-19T14:56:06.689Z,1009.3
2023-05-19T14:57:22.830Z,1009.3
2023-05-19T14:58:38.957Z,1009.2
2023-05-19T14:59:55.114Z,1009.2
2023-05-19T15:01:11.246Z,1009.2
2023-05-19T15:02:27.378Z,1009.1
2023-05-19T15:03:43.577Z,1009.2
2023-05-19T15:04:58.805Z,1009.2
2023-05-19T15:06:14.021Z,1009.1
2023-05-19T15:07:29.168Z,1009.2
2023-05-19T15:08:45.320Z,1009.1
2023-05-19T15:10:01.449Z,1009.2
2023-05-19T15:11:17.586Z,1009.1
2023-05-19T15:12:33.719Z,1009.1
2023-05-19T15:13:49.841Z,1009.1
2023-05-19T15:15:05.986Z,1009.1
2023-05-19T15:16:22.117Z,1009.1
2023-05-19T15:17:38.258Z,1009.1
2023-05-19T15:18:54.397Z,1009.1
2023-05-19T15:20:10.536Z,1009.2
2023-05-19T15:21:26.676Z,1009.1
2023-05-19T15:22:42.799Z,1009.1
2023-05-19T15:23:58.943Z,1009.2
2023-05-19T15:25:15.067Z,1009.2
2023-05-19T15:26:31.204Z,1009.2
2023-05-19T15:27:47.353Z,1009.2
2023-05-19T15:30:19.617Z,1009.2
2023-05-19T15:31:35.763Z,1009.1
2023-05-19T15:32:51.886Z,1009.1
2023-05-19T15:34:08.034Z,1009.2
2023-05-19T15:35:24.169Z,1009.1
2023-05-19T15:36:40.304Z,1009.1
2023-05-19T15:37:56.429Z,1009.2
2023-05-19T15:39:12.573Z,1009.2
2023-05-19T15:40:28.724Z,1009.1
2023-05-19T15:41:44.844Z,1009.2
2023-05-19T15:43:00.977Z,1009.1
2023-05-19T15:44:17.125Z,1009.2
2023-05-19T15:45:33.245Z,1009.1
2023-05-19T15:46:49.400Z,1009.1
2023-05-19T15:48:05.539Z,1009.1
2023-05-19T15:49:21.671Z,1009.1
2023-05-19T15:50:37.793Z,1009.1
2023-05-19T15:51:53.924Z,1009.1
2023-05-19T15:53:10.074Z,1009.1
2023-05-19T15:54:26.267Z,1009.1